sensor_id;sensor_type;location;lat;lon;timestamp;P1;durP1;ratioP1;P2;durP2;ratioP2
41903;SDS011;27586;51.124;4.182;2023-04-06T00:01:35;16.40;;;13.73;;
41903;SDS011;27586;51.124;4.182;2023-04-06T00:04:04;17.05;;;14.40;;
41903;SDS011;27586;51.124;4.182;2023-04-06T00:06:30;17.40;;;13.65;;
41903;SDS011;27586;51.124;4.182;2023-04-06T00:08:57;16.02;;;14.32;;
41903;SDS011;27586;51.124;4.182;2023-04-06T00:11:23;15.65;;;13.05;;
41903;SDS011;27586;51.124;4.182;2023-04-06T00:13:48;16.20;;;13.60;;
41903;SDS011;27586;51.124;4.182;2023-04-06T00:16:14;15.98;;;13.38;;
41903;SDS011;27586;51.124;4.182;2023-04-06T00:18:40;16.20;;;13.13;;
41903;SDS011;27586;51.124;4.182;2023-04-06T00:21:06;16.80;;;13.13;;
41903;SDS011;27586;51.124;4.182;2023-04-06T00:23:32;14.23;;;12.35;;
41903;SDS011;27586;51.124;4.182;2023-04-06T00:25:57;15.02;;;12.57;;
41903;SDS011;27586;51.124;4.182;2023-04-06T00:28:23;15.48;;;12.32;;
41903;SDS011;27586;51.124;4.182;2023-04-06T00:30:55;16.08;;;12.90;;
41903;SDS011;27586;51.124;4.182;2023-04-06T00:33:21;15.93;;;12.52;;
41903;SDS011;27586;51.124;4.182;2023-04-06T00:35:47;16.27;;;12.80;;
41903;SDS011;27586;51.124;4.182;2023-04-06T00:38:13;15.25;;;12.50;;
41903;SDS011;27586;51.124;4.182;2023-04-06T00:40:40;15.38;;;12.60;;
41903;SDS011;27586;51.124;4.182;2023-04-06T00:43:06;16.02;;;12.88;;
41903;SDS011;27586;51.124;4.182;2023-04-06T00:45:33;14.32;;;12.05;;
41903;SDS011;27586;51.124;4.182;2023-04-06T00:47:59;15.63;;;13.02;;
41903;SDS011;27586;51.124;4.182;2023-04-06T00:50:26;14.60;;;12.27;;
41903;SDS011;27586;51.124;4.182;2023-04-06T00:52:52;15.77;;;11.85;;
41903;SDS011;27586;51.124;4.182;2023-04-06T00:55:22;15.10;;;12.35;;
41903;SDS011;27586;51.124;4.182;2023-04-06T00:57:48;15.65;;;12.20;;
41903;SDS011;27586;51.124;4.182;2023-04-06T01:00:15;15.35;;;12.75;;
41903;SDS011;27586;51.124;4.182;2023-04-06T01:02:41;15.57;;;11.60;;
41903;SDS011;27586;51.124;4.182;2023-04-06T01:05:07;14.80;;;12.35;;
41903;SDS011;27586;51.124;4.182;2023-04-06T01:07:33;14.15;;;12.27;;
41903;SDS011;27586;51.124;4.182;2023-04-06T01:09:59;15.45;;;11.90;;
41903;SDS011;27586;51.124;4.182;2023-04-06T01:12:25;14.52;;;11.80;;
41903;SDS011;27586;51.124;4.182;2023-04-06T01:14:51;13.75;;;11.90;;
41903;SDS011;27586;51.124;4.182;2023-04-06T01:17:16;14.60;;;11.75;;
41903;SDS011;27586;51.124;4.182;2023-04-06T01:19:42;13.98;;;12.45;;
41903;SDS011;27586;51.124;4.182;2023-04-06T01:22:13;13.80;;;11.68;;
41903;SDS011;27586;51.124;4.182;2023-04-06T01:24:42;15.35;;;11.00;;
41903;SDS011;27586;51.124;4.182;2023-04-06T01:27:08;14.27;;;11.23;;
41903;SDS011;27586;51.124;4.182;2023-04-06T01:29:34;14.90;;;10.85;;
41903;SDS011;27586;51.124;4.182;2023-04-06T01:32:00;12.48;;;11.18;;
41903;SDS011;27586;51.124;4.182;2023-04-06T01:34:26;16.33;;;12.15;;
41903;SDS011;27586;51.124;4.182;2023-04-06T01:36:51;14.93;;;11.45;;
41903;SDS011;27586;51.124;4.182;2023-04-06T01:39:17;15.60;;;11.70;;
41903;SDS011;27586;51.124;4.182;2023-04-06T01:41:44;15.40;;;11.27;;
41903;SDS011;27586;51.124;4.182;2023-04-06T01:44:12;15.20;;;11.90;;
41903;SDS011;27586;51.124;4.182;2023-04-06T01:46:38;12.10;;;10.75;;
41903;SDS011;27586;51.124;4.182;2023-04-06T01:49:03;15.52;;;11.38;;
41903;SDS011;27586;51.124;4.182;2023-04-06T01:51:29;13.50;;;11.45;;
41903;SDS011;27586;51.124;4.182;2023-04-06T01:53:55;14.80;;;11.85;;
41903;SDS011;27586;51.124;4.182;2023-04-06T01:56:21;15.65;;;11.55;;
41903;SDS011;27586;51.124;4.182;2023-04-06T01:58:47;15.88;;;11.13;;
41903;SDS011;27586;51.124;4.182;2023-04-06T02:01:12;15.88;;;11.70;;
41903;SDS011;27586;51.124;4.182;2023-04-06T02:03:38;13.00;;;11.40;;
41903;SDS011;27586;51.124;4.182;2023-04-06T02:06:04;15.30;;;11.43;;
41903;SDS011;27586;51.124;4.182;2023-04-06T02:08:30;14.65;;;11.60;;
41903;SDS011;27586;51.124;4.182;2023-04-06T02:10:55;13.05;;;11.25;;
41903;SDS011;27586;51.124;4.182;2023-04-06T02:13:21;15.70;;;11.27;;
41903;SDS011;27586;51.124;4.182;2023-04-06T02:15:47;17.15;;;11.32;;
41903;SDS011;27586;51.124;4.182;2023-04-06T02:18:12;14.60;;;11.50;;
41903;SDS011;27586;51.124;4.182;2023-04-06T02:20:38;14.85;;;11.93;;
41903;SDS011;27586;51.124;4.182;2023-04-06T02:23:03;16.80;;;10.80;;
41903;SDS011;27586;51.124;4.182;2023-04-06T02:25:29;15.07;;;11.73;;
41903;SDS011;27586;51.124;4.182;2023-04-06T02:27:55;15.95;;;11.93;;
41903;SDS011;27586;51.124;4.182;2023-04-06T02:30:20;12.90;;;11.23;;
41903;SDS011;27586;51.124;4.182;2023-04-06T02:32:46;13.60;;;11.00;;
41903;SDS011;27586;51.124;4.182;2023-04-06T02:35:12;17.13;;;12.27;;
41903;SDS011;27586;51.124;4.182;2023-04-06T02:37:37;14.50;;;12.45;;
41903;SDS011;27586;51.124;4.182;2023-04-06T02:40:03;14.93;;;11.70;;
41903;SDS011;27586;51.124;4.182;2023-04-06T02:42:31;15.52;;;12.27;;
41903;SDS011;27586;51.124;4.182;2023-04-06T02:44:57;14.93;;;12.25;;
41903;SDS011;27586;51.124;4.182;2023-04-06T02:47:22;14.77;;;11.38;;
41903;SDS011;27586;51.124;4.182;2023-04-06T02:49:48;16.27;;;11.20;;
41903;SDS011;27586;51.124;4.182;2023-04-06T02:52:14;15.73;;;11.82;;
41903;SDS011;27586;51.124;4.182;2023-04-06T02:54:40;13.63;;;11.63;;
41903;SDS011;27586;51.124;4.182;2023-04-06T02:57:05;14.23;;;11.55;;
41903;SDS011;27586;51.124;4.182;2023-04-06T02:59:31;17.27;;;11.98;;
41903;SDS011;27586;51.124;4.182;2023-04-06T03:01:57;16.27;;;12.60;;
41903;SDS011;27586;51.124;4.182;2023-04-06T03:04:23;14.52;;;11.13;;
41903;SDS011;27586;51.124;4.182;2023-04-06T03:06:50;14.80;;;10.73;;
41903;SDS011;27586;51.124;4.182;2023-04-06T03:09:16;14.82;;;11.00;;
41903;SDS011;27586;51.124;4.182;2023-04-06T03:11:42;16.15;;;12.43;;
41903;SDS011;27586;51.124;4.182;2023-04-06T03:14:07;16.52;;;12.60;;
41903;SDS011;27586;51.124;4.182;2023-04-06T03:16:33;13.80;;;12.10;;
41903;SDS011;27586;51.124;4.182;2023-04-06T03:18:59;18.80;;;12.82;;
41903;SDS011;27586;51.124;4.182;2023-04-06T03:21:25;15.80;;;12.85;;
41903;SDS011;27586;51.124;4.182;2023-04-06T03:23:50;17.13;;;13.18;;
41903;SDS011;27586;51.124;4.182;2023-04-06T03:26:16;15.98;;;13.38;;
41903;SDS011;27586;51.124;4.182;2023-04-06T03:28:42;16.67;;;13.38;;
41903;SDS011;27586;51.124;4.182;2023-04-06T03:31:08;17.35;;;13.45;;
41903;SDS011;27586;51.124;4.182;2023-04-06T03:33:33;16.15;;;13.10;;
41903;SDS011;27586;51.124;4.182;2023-04-06T03:35:59;15.05;;;11.90;;
41903;SDS011;27586;51.124;4.182;2023-04-06T03:38:25;16.13;;;12.57;;
41903;SDS011;27586;51.124;4.182;2023-04-06T03:40:50;15.43;;;13.40;;
41903;SDS011;27586;51.124;4.182;2023-04-06T03:43:16;16.42;;;13.75;;
41903;SDS011;27586;51.124;4.182;2023-04-06T03:45:42;17.10;;;12.82;;
41903;SDS011;27586;51.124;4.182;2023-04-06T03:48:07;18.10;;;14.93;;
41903;SDS011;27586;51.124;4.182;2023-04-06T03:50:33;17.50;;;13.73;;
41903;SDS011;27586;51.124;4.182;2023-04-06T03:52:59;16.58;;;14.40;;
41903;SDS011;27586;51.124;4.182;2023-04-06T03:55:27;18.13;;;13.45;;
41903;SDS011;27586;51.124;4.182;2023-04-06T03:57:53;16.88;;;13.40;;
41903;SDS011;27586;51.124;4.182;2023-04-06T04:00:19;17.63;;;14.60;;
41903;SDS011;27586;51.124;4.182;2023-04-06T04:02:45;18.90;;;14.82;;
41903;SDS011;27586;51.124;4.182;2023-04-06T04:05:10;23.10;;;14.95;;
41903;SDS011;27586;51.124;4.182;2023-04-06T04:07:36;23.92;;;14.82;;
41903;SDS011;27586;51.124;4.182;2023-04-06T04:10:02;18.20;;;14.20;;
41903;SDS011;27586;51.124;4.182;2023-04-06T04:12:28;17.23;;;14.15;;
41903;SDS011;27586;51.124;4.182;2023-04-06T04:14:54;16.88;;;14.98;;
41903;SDS011;27586;51.124;4.182;2023-04-06T04:17:19;17.42;;;13.82;;
41903;SDS011;27586;51.124;4.182;2023-04-06T04:19:46;17.02;;;15.23;;
41903;SDS011;27586;51.124;4.182;2023-04-06T04:22:11;16.55;;;13.15;;
41903;SDS011;27586;51.124;4.182;2023-04-06T04:24:37;19.80;;;14.13;;
41903;SDS011;27586;51.124;4.182;2023-04-06T04:27:03;16.90;;;15.25;;
41903;SDS011;27586;51.124;4.182;2023-04-06T04:29:29;17.20;;;14.00;;
41903;SDS011;27586;51.124;4.182;2023-04-06T04:31:55;17.25;;;15.25;;
41903;SDS011;27586;51.124;4.182;2023-04-06T04:34:21;19.98;;;16.00;;
41903;SDS011;27586;51.124;4.182;2023-04-06T04:36:50;22.65;;;16.30;;
41903;SDS011;27586;51.124;4.182;2023-04-06T04:39:16;20.00;;;15.60;;
41903;SDS011;27586;51.124;4.182;2023-04-06T04:41:41;18.52;;;14.75;;
41903;SDS011;27586;51.124;4.182;2023-04-06T04:44:07;20.75;;;15.73;;
41903;SDS011;27586;51.124;4.182;2023-04-06T04:46:33;20.00;;;16.75;;
41903;SDS011;27586;51.124;4.182;2023-04-06T04:48:58;19.17;;;15.52;;
41903;SDS011;27586;51.124;4.182;2023-04-06T04:51:24;18.23;;;15.25;;
41903;SDS011;27586;51.124;4.182;2023-04-06T04:53:50;19.38;;;16.52;;
41903;SDS011;27586;51.124;4.182;2023-04-06T04:56:16;19.85;;;16.25;;
41903;SDS011;27586;51.124;4.182;2023-04-06T04:58:41;18.42;;;15.48;;
41903;SDS011;27586;51.124;4.182;2023-04-06T05:01:07;19.67;;;16.50;;
41903;SDS011;27586;51.124;4.182;2023-04-06T05:03:33;18.63;;;15.55;;
41903;SDS011;27586;51.124;4.182;2023-04-06T05:06:00;21.10;;;17.23;;
41903;SDS011;27586;51.124;4.182;2023-04-06T05:08:26;23.08;;;17.55;;
41903;SDS011;27586;51.124;4.182;2023-04-06T05:10:52;20.75;;;16.58;;
41903;SDS011;27586;51.124;4.182;2023-04-06T05:13:17;22.33;;;17.27;;
41903;SDS011;27586;51.124;4.182;2023-04-06T05:15:43;19.58;;;16.95;;
41903;SDS011;27586;51.124;4.182;2023-04-06T05:18:12;20.23;;;16.83;;
41903;SDS011;27586;51.124;4.182;2023-04-06T05:20:38;20.08;;;17.58;;
41903;SDS011;27586;51.124;4.182;2023-04-06T05:23:04;22.08;;;18.83;;
41903;SDS011;27586;51.124;4.182;2023-04-06T05:25:30;21.38;;;17.75;;
41903;SDS011;27586;51.124;4.182;2023-04-06T05:27:56;21.63;;;16.55;;
41903;SDS011;27586;51.124;4.182;2023-04-06T05:30:22;22.77;;;18.27;;
41903;SDS011;27586;51.124;4.182;2023-04-06T05:32:48;19.73;;;17.45;;
41903;SDS011;27586;51.124;4.182;2023-04-06T05:35:15;23.08;;;18.25;;
41903;SDS011;27586;51.124;4.182;2023-04-06T05:37:42;20.85;;;17.90;;
41903;SDS011;27586;51.124;4.182;2023-04-06T05:40:08;22.92;;;17.73;;
41903;SDS011;27586;51.124;4.182;2023-04-06T05:42:37;23.40;;;17.70;;
41903;SDS011;27586;51.124;4.182;2023-04-06T05:45:10;22.88;;;18.75;;
41903;SDS011;27586;51.124;4.182;2023-04-06T05:47:41;21.73;;;18.88;;
41903;SDS011;27586;51.124;4.182;2023-04-06T05:50:08;21.55;;;18.33;;
41903;SDS011;27586;51.124;4.182;2023-04-06T05:52:33;23.27;;;18.17;;
41903;SDS011;27586;51.124;4.182;2023-04-06T05:54:59;24.70;;;18.88;;
41903;SDS011;27586;51.124;4.182;2023-04-06T05:57:25;22.50;;;18.52;;
41903;SDS011;27586;51.124;4.182;2023-04-06T05:59:51;20.30;;;17.50;;
41903;SDS011;27586;51.124;4.182;2023-04-06T06:02:17;20.75;;;18.50;;
41903;SDS011;27586;51.124;4.182;2023-04-06T06:04:45;21.88;;;17.08;;
41903;SDS011;27586;51.124;4.182;2023-04-06T06:07:11;21.85;;;19.27;;
41903;SDS011;27586;51.124;4.182;2023-04-06T06:09:37;21.92;;;19.60;;
41903;SDS011;27586;51.124;4.182;2023-04-06T06:12:02;22.95;;;20.38;;
41903;SDS011;27586;51.124;4.182;2023-04-06T06:14:28;23.00;;;20.05;;
41903;SDS011;27586;51.124;4.182;2023-04-06T06:16:54;22.35;;;20.05;;
41903;SDS011;27586;51.124;4.182;2023-04-06T06:19:20;23.73;;;20.58;;
41903;SDS011;27586;51.124;4.182;2023-04-06T06:21:46;22.83;;;20.38;;
41903;SDS011;27586;51.124;4.182;2023-04-06T06:24:11;23.35;;;20.23;;
41903;SDS011;27586;51.124;4.182;2023-04-06T06:26:37;22.52;;;19.58;;
41903;SDS011;27586;51.124;4.182;2023-04-06T06:29:04;22.85;;;20.45;;
41903;SDS011;27586;51.124;4.182;2023-04-06T06:31:30;25.15;;;20.30;;
41903;SDS011;27586;51.124;4.182;2023-04-06T06:33:56;24.92;;;19.83;;
41903;SDS011;27586;51.124;4.182;2023-04-06T06:36:22;23.60;;;21.08;;
41903;SDS011;27586;51.124;4.182;2023-04-06T06:38:48;24.13;;;18.15;;
41903;SDS011;27586;51.124;4.182;2023-04-06T06:41:13;22.90;;;20.48;;
41903;SDS011;27586;51.124;4.182;2023-04-06T06:43:39;23.48;;;19.55;;
41903;SDS011;27586;51.124;4.182;2023-04-06T06:46:05;25.75;;;19.88;;
41903;SDS011;27586;51.124;4.182;2023-04-06T06:48:31;23.38;;;19.73;;
41903;SDS011;27586;51.124;4.182;2023-04-06T06:50:57;23.10;;;20.73;;
41903;SDS011;27586;51.124;4.182;2023-04-06T06:53:23;25.00;;;20.27;;
41903;SDS011;27586;51.124;4.182;2023-04-06T06:55:49;23.65;;;18.90;;
41903;SDS011;27586;51.124;4.182;2023-04-06T06:58:15;23.02;;;20.52;;
41903;SDS011;27586;51.124;4.182;2023-04-06T07:00:43;23.52;;;20.02;;
41903;SDS011;27586;51.124;4.182;2023-04-06T07:03:08;24.70;;;20.55;;
41903;SDS011;27586;51.124;4.182;2023-04-06T07:05:34;21.48;;;19.02;;
41903;SDS011;27586;51.124;4.182;2023-04-06T07:08:00;22.20;;;19.83;;
41903;SDS011;27586;51.124;4.182;2023-04-06T07:10:25;23.38;;;18.77;;
41903;SDS011;27586;51.124;4.182;2023-04-06T07:12:52;20.60;;;18.50;;
41903;SDS011;27586;51.124;4.182;2023-04-06T07:15:17;22.58;;;18.27;;
41903;SDS011;27586;51.124;4.182;2023-04-06T07:17:43;21.80;;;17.63;;
41903;SDS011;27586;51.124;4.182;2023-04-06T07:20:12;20.30;;;17.90;;
41903;SDS011;27586;51.124;4.182;2023-04-06T07:22:38;20.60;;;16.45;;
41903;SDS011;27586;51.124;4.182;2023-04-06T07:25:04;18.05;;;16.17;;
41903;SDS011;27586;51.124;4.182;2023-04-06T07:27:30;18.50;;;16.20;;
41903;SDS011;27586;51.124;4.182;2023-04-06T07:29:56;17.40;;;15.38;;
41903;SDS011;27586;51.124;4.182;2023-04-06T07:32:22;16.90;;;15.20;;
41903;SDS011;27586;51.124;4.182;2023-04-06T07:34:47;16.00;;;13.88;;
41903;SDS011;27586;51.124;4.182;2023-04-06T07:37:13;16.27;;;14.00;;
41903;SDS011;27586;51.124;4.182;2023-04-06T07:39:39;16.08;;;13.48;;
41903;SDS011;27586;51.124;4.182;2023-04-06T07:42:05;15.20;;;12.57;;
41903;SDS011;27586;51.124;4.182;2023-04-06T07:44:31;14.73;;;12.77;;
41903;SDS011;27586;51.124;4.182;2023-04-06T07:46:57;14.57;;;13.02;;
41903;SDS011;27586;51.124;4.182;2023-04-06T07:49:22;14.38;;;12.57;;
41903;SDS011;27586;51.124;4.182;2023-04-06T07:51:48;15.27;;;12.60;;
41903;SDS011;27586;51.124;4.182;2023-04-06T07:54:14;14.10;;;12.25;;
41903;SDS011;27586;51.124;4.182;2023-04-06T07:56:40;12.88;;;11.57;;
41903;SDS011;27586;51.124;4.182;2023-04-06T07:59:05;12.32;;;10.88;;
41903;SDS011;27586;51.124;4.182;2023-04-06T08:01:31;11.18;;;9.85;;
41903;SDS011;27586;51.124;4.182;2023-04-06T08:03:57;11.95;;;10.75;;
41903;SDS011;27586;51.124;4.182;2023-04-06T08:06:23;11.82;;;10.60;;
41903;SDS011;27586;51.124;4.182;2023-04-06T08:08:49;10.50;;;9.38;;
41903;SDS011;27586;51.124;4.182;2023-04-06T08:11:15;10.52;;;9.48;;
41903;SDS011;27586;51.124;4.182;2023-04-06T08:13:40;10.18;;;8.45;;
41903;SDS011;27586;51.124;4.182;2023-04-06T08:16:06;10.73;;;9.05;;
41903;SDS011;27586;51.124;4.182;2023-04-06T08:18:32;10.52;;;9.43;;
41903;SDS011;27586;51.124;4.182;2023-04-06T08:20:57;9.15;;;8.25;;
41903;SDS011;27586;51.124;4.182;2023-04-06T08:23:23;10.05;;;8.85;;
41903;SDS011;27586;51.124;4.182;2023-04-06T08:25:49;10.02;;;8.85;;
41903;SDS011;27586;51.124;4.182;2023-04-06T08:28:15;10.32;;;8.52;;
41903;SDS011;27586;51.124;4.182;2023-04-06T08:30:41;9.25;;;8.32;;
41903;SDS011;27586;51.124;4.182;2023-04-06T08:33:07;10.20;;;8.65;;
41903;SDS011;27586;51.124;4.182;2023-04-06T08:35:34;9.15;;;8.07;;
41903;SDS011;27586;51.124;4.182;2023-04-06T08:38:00;9.73;;;8.65;;
41903;SDS011;27586;51.124;4.182;2023-04-06T08:40:26;9.30;;;8.30;;
41903;SDS011;27586;51.124;4.182;2023-04-06T08:42:54;10.05;;;7.53;;
41903;SDS011;27586;51.124;4.182;2023-04-06T08:45:21;9.02;;;8.13;;
41903;SDS011;27586;51.124;4.182;2023-04-06T08:47:48;9.15;;;8.25;;
41903;SDS011;27586;51.124;4.182;2023-04-06T08:50:15;8.57;;;7.63;;
41903;SDS011;27586;51.124;4.182;2023-04-06T08:52:43;9.07;;;8.00;;
41903;SDS011;27586;51.124;4.182;2023-04-06T08:55:10;10.80;;;8.68;;
41903;SDS011;27586;51.124;4.182;2023-04-06T08:57:36;10.02;;;7.93;;
41903;SDS011;27586;51.124;4.182;2023-04-06T09:00:02;8.85;;;7.95;;
41903;SDS011;27586;51.124;4.182;2023-04-06T09:02:29;9.23;;;8.30;;
41903;SDS011;27586;51.124;4.182;2023-04-06T09:04:55;8.55;;;7.57;;
41903;SDS011;27586;51.124;4.182;2023-04-06T09:07:22;8.40;;;7.60;;
41903;SDS011;27586;51.124;4.182;2023-04-06T09:09:48;9.50;;;8.20;;
41903;SDS011;27586;51.124;4.182;2023-04-06T09:12:26;10.60;;;8.85;;
41903;SDS011;27586;51.124;4.182;2023-04-06T09:14:53;9.75;;;8.52;;
41903;SDS011;27586;51.124;4.182;2023-04-06T09:17:25;9.10;;;8.20;;
41903;SDS011;27586;51.124;4.182;2023-04-06T09:19:52;8.85;;;7.95;;
41903;SDS011;27586;51.124;4.182;2023-04-06T09:22:19;9.70;;;8.70;;
41903;SDS011;27586;51.124;4.182;2023-04-06T09:24:46;9.80;;;8.77;;
41903;SDS011;27586;51.124;4.182;2023-04-06T09:27:15;9.73;;;8.73;;
41903;SDS011;27586;51.124;4.182;2023-04-06T09:29:42;9.35;;;8.32;;
41903;SDS011;27586;51.124;4.182;2023-04-06T09:32:08;9.95;;;8.80;;
41903;SDS011;27586;51.124;4.182;2023-04-06T09:34:41;10.32;;;8.95;;
41903;SDS011;27586;51.124;4.182;2023-04-06T09:37:17;10.43;;;9.27;;
41903;SDS011;27586;51.124;4.182;2023-04-06T09:39:44;11.50;;;9.18;;
41903;SDS011;27586;51.124;4.182;2023-04-06T09:42:11;10.80;;;8.90;;
41903;SDS011;27586;51.124;4.182;2023-04-06T09:44:48;11.70;;;9.80;;
41903;SDS011;27586;51.124;4.182;2023-04-06T09:47:13;10.05;;;8.95;;
41903;SDS011;27586;51.124;4.182;2023-04-06T09:49:41;11.85;;;9.18;;
41903;SDS011;27586;51.124;4.182;2023-04-06T09:52:10;9.82;;;8.82;;
41903;SDS011;27586;51.124;4.182;2023-04-06T09:54:37;10.15;;;8.80;;
41903;SDS011;27586;51.124;4.182;2023-04-06T10:02:08;11.77;;;9.50;;
41903;SDS011;27586;51.124;4.182;2023-04-06T10:04:54;10.57;;;9.48;;
41903;SDS011;27586;51.124;4.182;2023-04-06T10:07:23;10.27;;;9.18;;
41903;SDS011;27586;51.124;4.182;2023-04-06T10:09:51;9.70;;;8.70;;
41903;SDS011;27586;51.124;4.182;2023-04-06T10:12:19;10.68;;;8.82;;
41903;SDS011;27586;51.124;4.182;2023-04-06T10:14:45;9.38;;;8.45;;
41903;SDS011;27586;51.124;4.182;2023-04-06T10:17:11;10.52;;;9.43;;
41903;SDS011;27586;51.124;4.182;2023-04-06T10:19:46;10.27;;;9.15;;
41903;SDS011;27586;51.124;4.182;2023-04-06T10:22:21;10.57;;;9.35;;
41903;SDS011;27586;51.124;4.182;2023-04-06T10:24:54;11.40;;;9.73;;
41903;SDS011;27586;51.124;4.182;2023-04-06T10:27:29;10.50;;;9.40;;
41903;SDS011;27586;51.124;4.182;2023-04-06T10:30:05;11.07;;;9.30;;
41903;SDS011;27586;51.124;4.182;2023-04-06T10:32:32;11.02;;;9.38;;
41903;SDS011;27586;51.124;4.182;2023-04-06T10:35:11;10.68;;;9.45;;
41903;SDS011;27586;51.124;4.182;2023-04-06T10:37:54;9.85;;;8.85;;
41903;SDS011;27586;51.124;4.182;2023-04-06T10:40:26;9.73;;;8.80;;
41903;SDS011;27586;51.124;4.182;2023-04-06T10:42:53;10.35;;;9.35;;
41903;SDS011;27586;51.124;4.182;2023-04-06T10:45:21;11.23;;;10.07;;
41903;SDS011;27586;51.124;4.182;2023-04-06T10:47:52;11.00;;;9.90;;
41903;SDS011;27586;51.124;4.182;2023-04-06T10:50:18;10.57;;;9.57;;
41903;SDS011;27586;51.124;4.182;2023-04-06T10:52:45;11.98;;;10.55;;
41903;SDS011;27586;51.124;4.182;2023-04-06T10:55:12;11.10;;;10.00;;
41903;SDS011;27586;51.124;4.182;2023-04-06T10:57:39;11.93;;;10.13;;
41903;SDS011;27586;51.124;4.182;2023-04-06T11:00:06;11.40;;;10.32;;
41903;SDS011;27586;51.124;4.182;2023-04-06T11:02:33;11.98;;;10.02;;
41903;SDS011;27586;51.124;4.182;2023-04-06T11:05:05;12.55;;;10.23;;
41903;SDS011;27586;51.124;4.182;2023-04-06T11:07:32;11.90;;;10.70;;
41903;SDS011;27586;51.124;4.182;2023-04-06T11:09:57;12.18;;;10.98;;
41903;SDS011;27586;51.124;4.182;2023-04-06T11:12:23;11.98;;;10.65;;
41903;SDS011;27586;51.124;4.182;2023-04-06T11:17:25;14.10;;;11.55;;
41903;SDS011;27586;51.124;4.182;2023-04-06T11:19:51;12.32;;;11.13;;
41903;SDS011;27586;51.124;4.182;2023-04-06T11:22:17;13.60;;;12.20;;
41903;SDS011;27586;51.124;4.182;2023-04-06T11:24:43;13.48;;;11.25;;
41903;SDS011;27586;51.124;4.182;2023-04-06T11:27:08;13.55;;;11.55;;
41903;SDS011;27586;51.124;4.182;2023-04-06T11:29:34;13.68;;;12.27;;
41903;SDS011;27586;51.124;4.182;2023-04-06T11:32:03;13.68;;;12.38;;
41903;SDS011;27586;51.124;4.182;2023-04-06T11:34:32;13.65;;;11.57;;
41903;SDS011;27586;51.124;4.182;2023-04-06T11:37:02;14.23;;;12.73;;
41903;SDS011;27586;51.124;4.182;2023-04-06T11:39:31;13.30;;;11.98;;
41903;SDS011;27586;51.124;4.182;2023-04-06T11:42:02;13.45;;;12.05;;
41903;SDS011;27586;51.124;4.182;2023-04-06T11:44:29;12.93;;;11.18;;
41903;SDS011;27586;51.124;4.182;2023-04-06T11:46:57;13.23;;;11.75;;
41903;SDS011;27586;51.124;4.182;2023-04-06T11:49:26;12.57;;;11.32;;
41903;SDS011;27586;51.124;4.182;2023-04-06T11:51:53;13.50;;;11.73;;
41903;SDS011;27586;51.124;4.182;2023-04-06T11:54:29;13.27;;;11.98;;
41903;SDS011;27586;51.124;4.182;2023-04-06T11:56:55;12.82;;;11.52;;
41903;SDS011;27586;51.124;4.182;2023-04-06T11:59:21;12.45;;;11.18;;
41903;SDS011;27586;51.124;4.182;2023-04-06T12:01:47;12.50;;;10.98;;
41903;SDS011;27586;51.124;4.182;2023-04-06T12:04:13;12.45;;;11.18;;
41903;SDS011;27586;51.124;4.182;2023-04-06T12:06:39;12.18;;;10.82;;
41903;SDS011;27586;51.124;4.182;2023-04-06T12:09:05;11.05;;;9.98;;
41903;SDS011;27586;51.124;4.182;2023-04-06T12:11:31;10.57;;;9.57;;
41903;SDS011;27586;51.124;4.182;2023-04-06T12:13:56;11.20;;;10.10;;
41903;SDS011;27586;51.124;4.182;2023-04-06T12:16:24;11.38;;;10.27;;
41903;SDS011;27586;51.124;4.182;2023-04-06T12:18:50;9.77;;;8.80;;
41903;SDS011;27586;51.124;4.182;2023-04-06T12:21:16;10.75;;;9.63;;
41903;SDS011;27586;51.124;4.182;2023-04-06T12:23:42;9.63;;;8.73;;
41903;SDS011;27586;51.124;4.182;2023-04-06T12:26:07;8.98;;;8.07;;
41903;SDS011;27586;51.124;4.182;2023-04-06T12:28:33;9.82;;;8.85;;
41903;SDS011;27586;51.124;4.182;2023-04-06T12:30:59;9.52;;;8.63;;
41903;SDS011;27586;51.124;4.182;2023-04-06T12:33:25;9.93;;;8.77;;
41903;SDS011;27586;51.124;4.182;2023-04-06T12:35:50;8.93;;;8.13;;
41903;SDS011;27586;51.124;4.182;2023-04-06T12:38:16;8.85;;;7.97;;
41903;SDS011;27586;51.124;4.182;2023-04-06T12:40:42;9.52;;;8.63;;
41903;SDS011;27586;51.124;4.182;2023-04-06T12:43:08;8.75;;;7.95;;
41903;SDS011;27586;51.124;4.182;2023-04-06T12:45:33;9.30;;;8.40;;
41903;SDS011;27586;51.124;4.182;2023-04-06T12:47:59;8.70;;;7.90;;
41903;SDS011;27586;51.124;4.182;2023-04-06T12:50:25;20.65;;;9.75;;
41903;SDS011;27586;51.124;4.182;2023-04-06T12:52:51;12.80;;;8.77;;
41903;SDS011;27586;51.124;4.182;2023-04-06T12:55:17;26.80;;;11.88;;
41903;SDS011;27586;51.124;4.182;2023-04-06T12:57:42;39.72;;;14.52;;
41903;SDS011;27586;51.124;4.182;2023-04-06T13:00:10;22.35;;;11.23;;
41903;SDS011;27586;51.124;4.182;2023-04-06T13:02:36;10.60;;;8.40;;
41903;SDS011;27586;51.124;4.182;2023-04-06T13:05:02;8.68;;;7.78;;
41903;SDS011;27586;51.124;4.182;2023-04-06T13:07:28;8.75;;;7.95;;
41903;SDS011;27586;51.124;4.182;2023-04-06T13:09:53;8.00;;;7.30;;
41903;SDS011;27586;51.124;4.182;2023-04-06T13:12:19;8.98;;;8.18;;
41903;SDS011;27586;51.124;4.182;2023-04-06T13:14:45;8.93;;;8.02;;
41903;SDS011;27586;51.124;4.182;2023-04-06T13:17:15;9.07;;;8.18;;
41903;SDS011;27586;51.124;4.182;2023-04-06T13:19:42;9.75;;;8.85;;
41903;SDS011;27586;51.124;4.182;2023-04-06T13:22:08;9.95;;;9.05;;
41903;SDS011;27586;51.124;4.182;2023-04-06T13:24:34;10.45;;;9.45;;
41903;SDS011;27586;51.124;4.182;2023-04-06T13:27:00;9.82;;;8.82;;
41903;SDS011;27586;51.124;4.182;2023-04-06T13:29:25;16.52;;;11.00;;
41903;SDS011;27586;51.124;4.182;2023-04-06T13:31:52;17.20;;;10.65;;
41903;SDS011;27586;51.124;4.182;2023-04-06T13:34:18;15.07;;;10.95;;
41903;SDS011;27586;51.124;4.182;2023-04-06T13:36:43;11.65;;;10.55;;
41903;SDS011;27586;51.124;4.182;2023-04-06T13:39:09;11.65;;;10.57;;
41903;SDS011;27586;51.124;4.182;2023-04-06T13:41:34;11.95;;;10.88;;
41903;SDS011;27586;51.124;4.182;2023-04-06T13:44:00;11.32;;;10.32;;
41903;SDS011;27586;51.124;4.182;2023-04-06T13:46:27;11.98;;;10.80;;
41903;SDS011;27586;51.124;4.182;2023-04-06T13:48:52;12.82;;;11.65;;
41903;SDS011;27586;51.124;4.182;2023-04-06T13:51:21;13.25;;;11.95;;
41903;SDS011;27586;51.124;4.182;2023-04-06T13:53:47;12.35;;;11.13;;
41903;SDS011;27586;51.124;4.182;2023-04-06T13:56:15;13.23;;;11.98;;
41903;SDS011;27586;51.124;4.182;2023-04-06T13:58:40;19.02;;;12.82;;
41903;SDS011;27586;51.124;4.182;2023-04-06T14:01:06;36.60;;;16.83;;
41903;SDS011;27586;51.124;4.182;2023-04-06T14:03:34;20.67;;;14.18;;
41903;SDS011;27586;51.124;4.182;2023-04-06T14:06:00;25.45;;;14.43;;
41903;SDS011;27586;51.124;4.182;2023-04-06T14:08:26;20.48;;;13.38;;
41903;SDS011;27586;51.124;4.182;2023-04-06T14:10:51;25.85;;;13.75;;
41903;SDS011;27586;51.124;4.182;2023-04-06T14:13:19;19.85;;;13.18;;
41903;SDS011;27586;51.124;4.182;2023-04-06T14:15:44;31.63;;;14.60;;
41903;SDS011;27586;51.124;4.182;2023-04-06T14:18:10;24.55;;;14.80;;
41903;SDS011;27586;51.124;4.182;2023-04-06T14:20:36;14.85;;;12.93;;
41903;SDS011;27586;51.124;4.182;2023-04-06T14:23:02;17.80;;;13.02;;
41903;SDS011;27586;51.124;4.182;2023-04-06T14:25:28;17.90;;;12.68;;
41903;SDS011;27586;51.124;4.182;2023-04-06T14:27:56;16.58;;;12.40;;
41903;SDS011;27586;51.124;4.182;2023-04-06T14:30:22;23.60;;;14.10;;